Sao Bernardo do Campo, Brazil
Current Conditions -  °F | °C
As of 7:00 AM on Thursday 27 Nov 2014 (Local Time) from SBSP Reporting Station
Broken Clouds Broken Clouds  
Wind Chill: 68°   Ceiling: 700
Heat Index: 68°   Visibility: 6mi
Dew Point: 64°   Wind: 8mph
Humidity: 88%   Direction: 180°S
Pressure: 29.97"   Gusts: NA
Location:  23.71°S, 46.54°W
Report Text: SBSP 270900Z 18007KT 140V240 9999 BKN007 BKN070 20/18 Q1015
Loading
Personal Weather Stations






























Interactive Weather Map New forecast layout! Learn more

10-Day Weather Forecast

Advertisements
Track Severe Weather on mobile